sensor_id;sensor_type;location;lat;lon;timestamp;P1;durP1;ratioP1;P2;durP2;ratioP2
70253;SDS011;57649;42.968;1.608;2023-06-22T00:01:22;20.77;;;13.05;;
70253;SDS011;57649;42.968;1.608;2023-06-22T00:03:48;17.08;;;12.30;;
70253;SDS011;57649;42.968;1.608;2023-06-22T00:06:13;17.02;;;12.57;;
70253;SDS011;57649;42.968;1.608;2023-06-22T00:08:39;21.33;;;11.23;;
70253;SDS011;57649;42.968;1.608;2023-06-22T00:11:05;16.83;;;11.38;;
70253;SDS011;57649;42.968;1.608;2023-06-22T00:13:30;15.93;;;11.25;;
70253;SDS011;57649;42.968;1.608;2023-06-22T00:15:56;15.48;;;11.40;;
70253;SDS011;57649;42.968;1.608;2023-06-22T00:18:21;15.95;;;11.38;;
70253;SDS011;57649;42.968;1.608;2023-06-22T00:20:47;16.90;;;11.00;;
70253;SDS011;57649;42.968;1.608;2023-06-22T00:23:12;12.43;;;10.27;;
70253;SDS011;57649;42.968;1.608;2023-06-22T00:25:40;15.43;;;11.00;;
70253;SDS011;57649;42.968;1.608;2023-06-22T00:28:06;17.75;;;11.20;;
70253;SDS011;57649;42.968;1.608;2023-06-22T00:30:32;22.00;;;10.57;;
70253;SDS011;57649;42.968;1.608;2023-06-22T00:32:58;17.70;;;10.27;;
70253;SDS011;57649;42.968;1.608;2023-06-22T00:35:25;15.45;;;10.73;;
70253;SDS011;57649;42.968;1.608;2023-06-22T00:40:26;15.93;;;10.57;;
70253;SDS011;57649;42.968;1.608;2023-06-22T00:42:52;16.02;;;10.90;;
70253;SDS011;57649;42.968;1.608;2023-06-22T00:45:17;20.73;;;11.82;;
70253;SDS011;57649;42.968;1.608;2023-06-22T00:47:43;16.85;;;11.35;;
70253;SDS011;57649;42.968;1.608;2023-06-22T00:50:09;16.75;;;11.25;;
70253;SDS011;57649;42.968;1.608;2023-06-22T00:52:43;17.08;;;12.13;;
70253;SDS011;57649;42.968;1.608;2023-06-22T00:55:11;17.67;;;12.15;;
70253;SDS011;57649;42.968;1.608;2023-06-22T00:57:37;16.10;;;11.45;;
70253;SDS011;57649;42.968;1.608;2023-06-22T01:00:02;15.10;;;10.52;;
70253;SDS011;57649;42.968;1.608;2023-06-22T01:02:31;17.70;;;11.77;;
70253;SDS011;57649;42.968;1.608;2023-06-22T01:04:57;21.33;;;11.82;;
70253;SDS011;57649;42.968;1.608;2023-06-22T01:07:34;14.90;;;11.63;;
70253;SDS011;57649;42.968;1.608;2023-06-22T01:12:48;17.95;;;11.40;;
70253;SDS011;57649;42.968;1.608;2023-06-22T01:15:21;19.15;;;13.10;;
70253;SDS011;57649;42.968;1.608;2023-06-22T01:17:51;19.80;;;13.00;;
70253;SDS011;57649;42.968;1.608;2023-06-22T01:20:18;21.75;;;13.98;;
70253;SDS011;57649;42.968;1.608;2023-06-22T01:22:50;21.35;;;15.05;;
70253;SDS011;57649;42.968;1.608;2023-06-22T01:25:20;19.85;;;13.80;;
70253;SDS011;57649;42.968;1.608;2023-06-22T01:27:53;20.10;;;14.82;;
70253;SDS011;57649;42.968;1.608;2023-06-22T01:30:26;21.42;;;14.57;;
70253;SDS011;57649;42.968;1.608;2023-06-22T01:32:54;24.20;;;15.15;;
70253;SDS011;57649;42.968;1.608;2023-06-22T01:35:21;19.30;;;14.07;;
70253;SDS011;57649;42.968;1.608;2023-06-22T01:37:48;19.27;;;13.85;;
70253;SDS011;57649;42.968;1.608;2023-06-22T01:40:15;16.40;;;12.55;;
70253;SDS011;57649;42.968;1.608;2023-06-22T01:42:41;10.57;;;8.02;;
70253;SDS011;57649;42.968;1.608;2023-06-22T01:45:08;9.02;;;6.53;;
70253;SDS011;57649;42.968;1.608;2023-06-22T01:47:35;11.30;;;5.97;;
70253;SDS011;57649;42.968;1.608;2023-06-22T01:50:00;10.15;;;5.13;;
70253;SDS011;57649;42.968;1.608;2023-06-22T01:52:26;6.50;;;4.28;;
70253;SDS011;57649;42.968;1.608;2023-06-22T01:54:51;10.50;;;4.20;;
70253;SDS011;57649;42.968;1.608;2023-06-22T01:57:17;5.95;;;4.15;;
70253;SDS011;57649;42.968;1.608;2023-06-22T02:02:42;5.50;;;3.50;;
70253;SDS011;57649;42.968;1.608;2023-06-22T02:05:15;5.35;;;3.28;;
70253;SDS011;57649;42.968;1.608;2023-06-22T02:07:52;4.60;;;2.88;;
70253;SDS011;57649;42.968;1.608;2023-06-22T02:10:41;7.18;;;3.10;;
70253;SDS011;57649;42.968;1.608;2023-06-22T02:13:09;5.05;;;2.75;;
70253;SDS011;57649;42.968;1.608;2023-06-22T02:15:35;6.13;;;2.40;;
70253;SDS011;57649;42.968;1.608;2023-06-22T02:18:01;3.35;;;2.50;;
70253;SDS011;57649;42.968;1.608;2023-06-22T02:20:27;4.35;;;2.65;;
70253;SDS011;57649;42.968;1.608;2023-06-22T02:22:52;5.32;;;2.55;;
70253;SDS011;57649;42.968;1.608;2023-06-22T02:25:17;3.90;;;2.33;;
70253;SDS011;57649;42.968;1.608;2023-06-22T02:27:44;3.75;;;2.38;;
70253;SDS011;57649;42.968;1.608;2023-06-22T02:30:09;4.93;;;2.58;;
70253;SDS011;57649;42.968;1.608;2023-06-22T02:32:35;2.90;;;2.00;;
70253;SDS011;57649;42.968;1.608;2023-06-22T02:35:01;3.53;;;2.05;;
70253;SDS011;57649;42.968;1.608;2023-06-22T02:37:30;5.15;;;2.22;;
70253;SDS011;57649;42.968;1.608;2023-06-22T02:39:56;5.47;;;2.25;;
70253;SDS011;57649;42.968;1.608;2023-06-22T02:42:22;2.53;;;1.92;;
70253;SDS011;57649;42.968;1.608;2023-06-22T02:44:47;3.78;;;1.98;;
70253;SDS011;57649;42.968;1.608;2023-06-22T02:47:13;4.25;;;1.98;;
70253;SDS011;57649;42.968;1.608;2023-06-22T02:49:38;4.57;;;2.20;;
70253;SDS011;57649;42.968;1.608;2023-06-22T02:52:04;3.63;;;2.20;;
70253;SDS011;57649;42.968;1.608;2023-06-22T02:54:29;3.35;;;2.00;;
70253;SDS011;57649;42.968;1.608;2023-06-22T02:56:55;3.00;;;2.00;;
70253;SDS011;57649;42.968;1.608;2023-06-22T02:59:21;4.57;;;2.10;;
70253;SDS011;57649;42.968;1.608;2023-06-22T03:01:49;2.80;;;1.98;;
70253;SDS011;57649;42.968;1.608;2023-06-22T03:04:15;3.78;;;2.08;;
70253;SDS011;57649;42.968;1.608;2023-06-22T03:06:41;3.65;;;1.80;;
70253;SDS011;57649;42.968;1.608;2023-06-22T03:09:06;4.68;;;2.20;;
70253;SDS011;57649;42.968;1.608;2023-06-22T03:11:32;2.60;;;1.85;;
70253;SDS011;57649;42.968;1.608;2023-06-22T03:13:59;5.10;;;2.25;;
70253;SDS011;57649;42.968;1.608;2023-06-22T03:16:25;2.60;;;1.98;;
70253;SDS011;57649;42.968;1.608;2023-06-22T03:18:50;5.10;;;1.83;;
70253;SDS011;57649;42.968;1.608;2023-06-22T03:21:16;4.18;;;2.30;;
70253;SDS011;57649;42.968;1.608;2023-06-22T03:23:42;5.35;;;2.10;;
70253;SDS011;57649;42.968;1.608;2023-06-22T03:26:08;3.85;;;1.98;;
70253;SDS011;57649;42.968;1.608;2023-06-22T03:28:34;3.03;;;1.88;;
70253;SDS011;57649;42.968;1.608;2023-06-22T03:31:00;3.53;;;1.67;;
70253;SDS011;57649;42.968;1.608;2023-06-22T03:33:25;3.20;;;2.10;;
70253;SDS011;57649;42.968;1.608;2023-06-22T03:35:51;5.93;;;1.95;;
70253;SDS011;57649;42.968;1.608;2023-06-22T03:38:16;3.97;;;2.13;;
70253;SDS011;57649;42.968;1.608;2023-06-22T03:40:42;2.60;;;1.88;;
70253;SDS011;57649;42.968;1.608;2023-06-22T03:43:07;2.80;;;1.90;;
70253;SDS011;57649;42.968;1.608;2023-06-22T03:45:33;3.80;;;1.95;;
70253;SDS011;57649;42.968;1.608;2023-06-22T03:47:59;3.45;;;1.73;;
70253;SDS011;57649;42.968;1.608;2023-06-22T03:50:25;4.10;;;2.30;;
70253;SDS011;57649;42.968;1.608;2023-06-22T03:52:50;3.80;;;2.53;;
70253;SDS011;57649;42.968;1.608;2023-06-22T03:55:17;3.45;;;1.80;;
70253;SDS011;57649;42.968;1.608;2023-06-22T03:57:43;5.55;;;1.95;;
70253;SDS011;57649;42.968;1.608;2023-06-22T04:00:08;2.95;;;1.90;;
70253;SDS011;57649;42.968;1.608;2023-06-22T04:02:35;4.22;;;2.40;;
70253;SDS011;57649;42.968;1.608;2023-06-22T04:05:00;7.35;;;2.40;;
70253;SDS011;57649;42.968;1.608;2023-06-22T04:07:26;5.30;;;2.20;;
70253;SDS011;57649;42.968;1.608;2023-06-22T04:09:51;2.95;;;1.88;;
70253;SDS011;57649;42.968;1.608;2023-06-22T04:12:16;3.90;;;2.28;;
70253;SDS011;57649;42.968;1.608;2023-06-22T04:14:42;4.22;;;2.10;;
70253;SDS011;57649;42.968;1.608;2023-06-22T04:17:07;3.65;;;2.20;;
70253;SDS011;57649;42.968;1.608;2023-06-22T04:19:32;4.80;;;2.20;;
70253;SDS011;57649;42.968;1.608;2023-06-22T04:21:58;3.55;;;2.03;;
70253;SDS011;57649;42.968;1.608;2023-06-22T04:24:23;3.85;;;2.33;;
70253;SDS011;57649;42.968;1.608;2023-06-22T04:26:49;3.53;;;2.28;;
70253;SDS011;57649;42.968;1.608;2023-06-22T04:29:18;3.05;;;2.35;;
70253;SDS011;57649;42.968;1.608;2023-06-22T04:31:44;3.53;;;2.40;;
70253;SDS011;57649;42.968;1.608;2023-06-22T04:34:09;4.18;;;2.42;;
70253;SDS011;57649;42.968;1.608;2023-06-22T04:36:35;3.55;;;2.35;;
70253;SDS011;57649;42.968;1.608;2023-06-22T04:39:09;3.65;;;2.50;;
70253;SDS011;57649;42.968;1.608;2023-06-22T04:41:36;6.70;;;2.67;;
70253;SDS011;57649;42.968;1.608;2023-06-22T04:44:17;3.92;;;2.90;;
70253;SDS011;57649;42.968;1.608;2023-06-22T04:46:49;4.70;;;2.92;;
70253;SDS011;57649;42.968;1.608;2023-06-22T04:49:19;6.32;;;2.83;;
70253;SDS011;57649;42.968;1.608;2023-06-22T04:51:46;4.78;;;3.17;;
70253;SDS011;57649;42.968;1.608;2023-06-22T04:54:11;4.78;;;2.90;;
70253;SDS011;57649;42.968;1.608;2023-06-22T04:56:37;3.95;;;2.78;;
70253;SDS011;57649;42.968;1.608;2023-06-22T04:59:03;4.32;;;2.80;;
70253;SDS011;57649;42.968;1.608;2023-06-22T05:01:28;3.30;;;2.50;;
70253;SDS011;57649;42.968;1.608;2023-06-22T05:03:56;4.40;;;2.80;;
70253;SDS011;57649;42.968;1.608;2023-06-22T05:06:22;5.55;;;2.90;;
70253;SDS011;57649;42.968;1.608;2023-06-22T05:08:51;6.38;;;3.10;;
70253;SDS011;57649;42.968;1.608;2023-06-22T05:11:26;4.13;;;2.80;;
70253;SDS011;57649;42.968;1.608;2023-06-22T05:13:52;5.43;;;3.08;;
70253;SDS011;57649;42.968;1.608;2023-06-22T05:16:18;7.10;;;4.00;;
70253;SDS011;57649;42.968;1.608;2023-06-22T05:18:52;4.65;;;3.38;;
70253;SDS011;57649;42.968;1.608;2023-06-22T05:21:22;4.82;;;3.63;;
70253;SDS011;57649;42.968;1.608;2023-06-22T05:23:49;7.65;;;3.85;;
70253;SDS011;57649;42.968;1.608;2023-06-22T05:26:15;6.60;;;3.75;;
70253;SDS011;57649;42.968;1.608;2023-06-22T05:28:40;6.00;;;3.83;;
70253;SDS011;57649;42.968;1.608;2023-06-22T05:31:06;5.78;;;4.25;;
70253;SDS011;57649;42.968;1.608;2023-06-22T05:33:31;7.32;;;3.78;;
70253;SDS011;57649;42.968;1.608;2023-06-22T05:35:57;8.23;;;4.05;;
70253;SDS011;57649;42.968;1.608;2023-06-22T05:38:22;6.47;;;4.45;;
70253;SDS011;57649;42.968;1.608;2023-06-22T05:40:48;4.75;;;3.70;;
70253;SDS011;57649;42.968;1.608;2023-06-22T05:43:13;7.50;;;3.92;;
70253;SDS011;57649;42.968;1.608;2023-06-22T05:45:39;5.93;;;3.60;;
70253;SDS011;57649;42.968;1.608;2023-06-22T05:48:04;4.25;;;3.20;;
70253;SDS011;57649;42.968;1.608;2023-06-22T05:50:30;5.90;;;3.33;;
70253;SDS011;57649;42.968;1.608;2023-06-22T05:52:55;13.95;;;6.05;;
70253;SDS011;57649;42.968;1.608;2023-06-22T05:55:21;5.10;;;3.35;;
70253;SDS011;57649;42.968;1.608;2023-06-22T05:57:46;4.07;;;2.90;;
70253;SDS011;57649;42.968;1.608;2023-06-22T06:00:12;4.10;;;2.65;;
70253;SDS011;57649;42.968;1.608;2023-06-22T06:02:38;4.95;;;2.55;;
70253;SDS011;57649;42.968;1.608;2023-06-22T06:05:09;3.50;;;2.53;;
70253;SDS011;57649;42.968;1.608;2023-06-22T06:07:35;3.38;;;2.50;;
70253;SDS011;57649;42.968;1.608;2023-06-22T06:10:02;4.80;;;2.33;;
70253;SDS011;57649;42.968;1.608;2023-06-22T06:12:29;3.60;;;2.60;;
70253;SDS011;57649;42.968;1.608;2023-06-22T06:14:55;5.20;;;3.00;;
70253;SDS011;57649;42.968;1.608;2023-06-22T06:17:21;4.85;;;2.58;;
70253;SDS011;57649;42.968;1.608;2023-06-22T06:19:47;3.85;;;2.40;;
70253;SDS011;57649;42.968;1.608;2023-06-22T06:22:12;3.33;;;2.30;;
70253;SDS011;57649;42.968;1.608;2023-06-22T06:24:37;3.90;;;2.30;;
70253;SDS011;57649;42.968;1.608;2023-06-22T06:27:03;3.38;;;2.47;;
70253;SDS011;57649;42.968;1.608;2023-06-22T06:29:30;3.47;;;2.15;;
70253;SDS011;57649;42.968;1.608;2023-06-22T06:31:55;4.57;;;2.47;;
70253;SDS011;57649;42.968;1.608;2023-06-22T06:34:21;4.38;;;2.35;;
70253;SDS011;57649;42.968;1.608;2023-06-22T06:36:47;4.03;;;2.50;;
70253;SDS011;57649;42.968;1.608;2023-06-22T06:39:13;4.22;;;2.90;;
70253;SDS011;57649;42.968;1.608;2023-06-22T06:41:38;6.68;;;3.17;;
70253;SDS011;57649;42.968;1.608;2023-06-22T06:44:04;4.70;;;3.28;;
70253;SDS011;57649;42.968;1.608;2023-06-22T06:46:29;4.25;;;2.95;;
70253;SDS011;57649;42.968;1.608;2023-06-22T06:48:55;5.97;;;3.67;;
70253;SDS011;57649;42.968;1.608;2023-06-22T06:51:20;5.50;;;3.67;;
70253;SDS011;57649;42.968;1.608;2023-06-22T06:53:46;2.70;;;2.50;;
70253;SDS011;57649;42.968;1.608;2023-06-22T06:56:11;4.55;;;2.63;;
70253;SDS011;57649;42.968;1.608;2023-06-22T06:58:40;3.00;;;2.17;;
70253;SDS011;57649;42.968;1.608;2023-06-22T07:01:07;4.53;;;2.40;;
70253;SDS011;57649;42.968;1.608;2023-06-22T07:03:33;4.97;;;2.58;;
70253;SDS011;57649;42.968;1.608;2023-06-22T07:05:59;5.07;;;2.70;;
70253;SDS011;57649;42.968;1.608;2023-06-22T07:08:24;4.05;;;2.72;;
70253;SDS011;57649;42.968;1.608;2023-06-22T07:10:50;7.75;;;4.38;;
70253;SDS011;57649;42.968;1.608;2023-06-22T07:13:17;3.33;;;2.10;;
70253;SDS011;57649;42.968;1.608;2023-06-22T07:15:42;7.72;;;3.75;;
70253;SDS011;57649;42.968;1.608;2023-06-22T07:18:07;2.90;;;2.00;;
70253;SDS011;57649;42.968;1.608;2023-06-22T07:20:33;3.30;;;2.40;;
70253;SDS011;57649;42.968;1.608;2023-06-22T07:22:58;3.55;;;2.60;;
70253;SDS011;57649;42.968;1.608;2023-06-22T07:25:23;8.13;;;2.30;;
70253;SDS011;57649;42.968;1.608;2023-06-22T07:27:59;3.92;;;2.30;;
70253;SDS011;57649;42.968;1.608;2023-06-22T07:30:27;2.70;;;1.90;;
70253;SDS011;57649;42.968;1.608;2023-06-22T07:32:53;5.18;;;2.10;;
70253;SDS011;57649;42.968;1.608;2023-06-22T07:35:18;3.28;;;2.10;;
70253;SDS011;57649;42.968;1.608;2023-06-22T07:37:44;2.67;;;2.15;;
70253;SDS011;57649;42.968;1.608;2023-06-22T07:40:09;3.03;;;2.13;;
70253;SDS011;57649;42.968;1.608;2023-06-22T07:42:36;3.25;;;1.60;;
70253;SDS011;57649;42.968;1.608;2023-06-22T07:45:04;3.13;;;1.83;;
70253;SDS011;57649;42.968;1.608;2023-06-22T07:47:30;2.85;;;2.08;;
70253;SDS011;57649;42.968;1.608;2023-06-22T07:50:00;2.60;;;2.05;;
70253;SDS011;57649;42.968;1.608;2023-06-22T07:52:26;4.40;;;2.40;;
70253;SDS011;57649;42.968;1.608;2023-06-22T07:54:55;4.63;;;2.00;;
70253;SDS011;57649;42.968;1.608;2023-06-22T07:57:20;3.60;;;2.17;;
70253;SDS011;57649;42.968;1.608;2023-06-22T07:59:46;4.40;;;2.13;;
70253;SDS011;57649;42.968;1.608;2023-06-22T08:02:11;7.75;;;2.60;;
70253;SDS011;57649;42.968;1.608;2023-06-22T08:04:37;3.47;;;2.13;;
70253;SDS011;57649;42.968;1.608;2023-06-22T08:07:03;4.78;;;2.33;;
70253;SDS011;57649;42.968;1.608;2023-06-22T08:09:30;3.53;;;2.20;;
70253;SDS011;57649;42.968;1.608;2023-06-22T08:11:56;3.97;;;2.15;;
70253;SDS011;57649;42.968;1.608;2023-06-22T08:14:24;4.32;;;2.65;;
70253;SDS011;57649;42.968;1.608;2023-06-22T08:16:51;3.50;;;2.40;;
70253;SDS011;57649;42.968;1.608;2023-06-22T08:19:16;2.50;;;1.88;;
70253;SDS011;57649;42.968;1.608;2023-06-22T08:21:42;2.90;;;2.00;;
70253;SDS011;57649;42.968;1.608;2023-06-22T08:24:08;3.20;;;1.80;;
70253;SDS011;57649;42.968;1.608;2023-06-22T08:26:34;2.92;;;1.92;;
70253;SDS011;57649;42.968;1.608;2023-06-22T08:29:03;4.55;;;1.80;;
70253;SDS011;57649;42.968;1.608;2023-06-22T08:31:29;13.48;;;7.07;;
70253;SDS011;57649;42.968;1.608;2023-06-22T08:33:56;3.17;;;1.80;;
70253;SDS011;57649;42.968;1.608;2023-06-22T08:36:21;3.97;;;2.42;;
70253;SDS011;57649;42.968;1.608;2023-06-22T08:38:47;3.30;;;2.03;;
70253;SDS011;57649;42.968;1.608;2023-06-22T08:41:16;3.83;;;2.20;;
70253;SDS011;57649;42.968;1.608;2023-06-22T08:43:42;3.50;;;1.90;;
70253;SDS011;57649;42.968;1.608;2023-06-22T08:46:09;1.63;;;1.00;;
70253;SDS011;57649;42.968;1.608;2023-06-22T08:48:35;2.40;;;1.67;;
70253;SDS011;57649;42.968;1.608;2023-06-22T08:51:00;2.35;;;1.40;;
70253;SDS011;57649;42.968;1.608;2023-06-22T08:53:25;3.03;;;1.35;;
70253;SDS011;57649;42.968;1.608;2023-06-22T08:55:51;1.58;;;1.02;;
70253;SDS011;57649;42.968;1.608;2023-06-22T08:58:16;1.80;;;1.23;;
70253;SDS011;57649;42.968;1.608;2023-06-22T09:00:43;3.08;;;1.45;;
70253;SDS011;57649;42.968;1.608;2023-06-22T09:03:08;2.22;;;1.33;;
70253;SDS011;57649;42.968;1.608;2023-06-22T09:05:34;7.38;;;1.85;;
70253;SDS011;57649;42.968;1.608;2023-06-22T09:07:59;4.13;;;1.75;;
70253;SDS011;57649;42.968;1.608;2023-06-22T09:10:25;7.53;;;2.00;;
70253;SDS011;57649;42.968;1.608;2023-06-22T09:12:51;7.65;;;2.47;;
70253;SDS011;57649;42.968;1.608;2023-06-22T09:15:16;2.67;;;1.70;;
70253;SDS011;57649;42.968;1.608;2023-06-22T09:17:42;4.97;;;3.08;;
70253;SDS011;57649;42.968;1.608;2023-06-22T09:20:07;6.50;;;3.38;;
70253;SDS011;57649;42.968;1.608;2023-06-22T09:22:35;5.95;;;3.20;;
70253;SDS011;57649;42.968;1.608;2023-06-22T09:25:01;5.28;;;2.85;;
70253;SDS011;57649;42.968;1.608;2023-06-22T09:27:27;3.67;;;2.17;;
70253;SDS011;57649;42.968;1.608;2023-06-22T09:29:53;8.00;;;2.72;;
70253;SDS011;57649;42.968;1.608;2023-06-22T09:32:18;2.05;;;1.35;;
70253;SDS011;57649;42.968;1.608;2023-06-22T09:34:44;1.95;;;1.40;;
70253;SDS011;57649;42.968;1.608;2023-06-22T09:37:09;2.08;;;1.67;;
70253;SDS011;57649;42.968;1.608;2023-06-22T09:39:34;2.67;;;1.50;;
70253;SDS011;57649;42.968;1.608;2023-06-22T09:42:01;2.33;;;1.92;;
70253;SDS011;57649;42.968;1.608;2023-06-22T09:44:26;4.38;;;1.98;;
70253;SDS011;57649;42.968;1.608;2023-06-22T09:46:51;1.90;;;1.27;;
70253;SDS011;57649;42.968;1.608;2023-06-22T09:49:17;3.45;;;1.88;;
70253;SDS011;57649;42.968;1.608;2023-06-22T09:51:42;2.60;;;1.85;;
70253;SDS011;57649;42.968;1.608;2023-06-22T09:54:08;3.33;;;1.70;;
70253;SDS011;57649;42.968;1.608;2023-06-22T09:56:33;2.45;;;1.60;;
70253;SDS011;57649;42.968;1.608;2023-06-22T09:58:59;1.95;;;1.33;;
70253;SDS011;57649;42.968;1.608;2023-06-22T10:01:24;2.78;;;1.50;;
70253;SDS011;57649;42.968;1.608;2023-06-22T10:03:49;3.33;;;1.50;;
70253;SDS011;57649;42.968;1.608;2023-06-22T10:06:15;2.80;;;1.63;;
70253;SDS011;57649;42.968;1.608;2023-06-22T10:08:40;2.95;;;1.60;;
70253;SDS011;57649;42.968;1.608;2023-06-22T10:11:06;3.05;;;1.60;;
70253;SDS011;57649;42.968;1.608;2023-06-22T10:13:31;4.75;;;1.67;;
70253;SDS011;57649;42.968;1.608;2023-06-22T10:15:56;2.30;;;1.45;;
70253;SDS011;57649;42.968;1.608;2023-06-22T10:18:22;1.73;;;1.33;;
70253;SDS011;57649;42.968;1.608;2023-06-22T10:20:48;4.05;;;1.42;;
70253;SDS011;57649;42.968;1.608;2023-06-22T10:23:20;3.13;;;1.35;;
70253;SDS011;57649;42.968;1.608;2023-06-22T10:25:46;2.78;;;1.60;;
70253;SDS011;57649;42.968;1.608;2023-06-22T10:28:11;1.90;;;1.45;;
70253;SDS011;57649;42.968;1.608;2023-06-22T10:30:38;2.20;;;1.38;;
70253;SDS011;57649;42.968;1.608;2023-06-22T10:33:09;2.35;;;1.60;;
70253;SDS011;57649;42.968;1.608;2023-06-22T10:38:04;2.80;;;1.70;;
70253;SDS011;57649;42.968;1.608;2023-06-22T10:40:30;2.40;;;1.60;;
70253;SDS011;57649;42.968;1.608;2023-06-22T10:42:55;3.55;;;2.00;;
70253;SDS011;57649;42.968;1.608;2023-06-22T10:45:21;3.00;;;1.50;;
70253;SDS011;57649;42.968;1.608;2023-06-22T10:47:46;2.53;;;1.92;;
70253;SDS011;57649;42.968;1.608;2023-06-22T10:50:12;2.80;;;1.92;;
70253;SDS011;57649;42.968;1.608;2023-06-22T10:52:37;3.28;;;1.83;;
70253;SDS011;57649;42.968;1.608;2023-06-22T10:55:03;3.40;;;2.35;;
70253;SDS011;57649;42.968;1.608;2023-06-22T10:57:29;3.92;;;1.90;;
70253;SDS011;57649;42.968;1.608;2023-06-22T10:59:54;2.88;;;1.88;;
70253;SDS011;57649;42.968;1.608;2023-06-22T11:02:19;4.45;;;3.67;;
70253;SDS011;57649;42.968;1.608;2023-06-22T11:04:45;2.80;;;2.03;;
70253;SDS011;57649;42.968;1.608;2023-06-22T11:07:11;3.55;;;2.08;;
70253;SDS011;57649;42.968;1.608;2023-06-22T11:09:36;3.85;;;2.10;;
70253;SDS011;57649;42.968;1.608;2023-06-22T11:12:03;2.67;;;2.13;;
70253;SDS011;57649;42.968;1.608;2023-06-22T11:14:29;3.33;;;2.20;;
70253;SDS011;57649;42.968;1.608;2023-06-22T11:16:54;3.30;;;2.20;;
70253;SDS011;57649;42.968;1.608;2023-06-22T11:19:19;4.20;;;2.40;;
70253;SDS011;57649;42.968;1.608;2023-06-22T11:21:45;5.25;;;2.65;;
70253;SDS011;57649;42.968;1.608;2023-06-22T11:24:10;3.88;;;2.15;;
70253;SDS011;57649;42.968;1.608;2023-06-22T11:26:36;2.75;;;2.45;;
70253;SDS011;57649;42.968;1.608;2023-06-22T11:29:02;3.38;;;2.20;;
70253;SDS011;57649;42.968;1.608;2023-06-22T11:31:30;3.72;;;2.00;;
70253;SDS011;57649;42.968;1.608;2023-06-22T11:33:56;3.00;;;2.13;;
70253;SDS011;57649;42.968;1.608;2023-06-22T11:36:21;3.33;;;2.17;;
70253;SDS011;57649;42.968;1.608;2023-06-22T11:38:47;3.05;;;2.15;;
70253;SDS011;57649;42.968;1.608;2023-06-22T11:41:12;4.55;;;2.50;;
70253;SDS011;57649;42.968;1.608;2023-06-22T11:43:38;2.85;;;2.30;;
70253;SDS011;57649;42.968;1.608;2023-06-22T11:46:03;3.03;;;2.45;;
70253;SDS011;57649;42.968;1.608;2023-06-22T11:48:29;4.15;;;2.17;;
70253;SDS011;57649;42.968;1.608;2023-06-22T11:50:55;4.22;;;2.20;;
70253;SDS011;57649;42.968;1.608;2023-06-22T11:53:21;3.08;;;2.10;;
70253;SDS011;57649;42.968;1.608;2023-06-22T11:55:48;8.23;;;2.35;;
70253;SDS011;57649;42.968;1.608;2023-06-22T11:58:14;3.65;;;2.17;;
70253;SDS011;57649;42.968;1.608;2023-06-22T12:00:39;3.28;;;1.92;;
70253;SDS011;57649;42.968;1.608;2023-06-22T12:03:05;3.92;;;2.30;;
70253;SDS011;57649;42.968;1.608;2023-06-22T12:05:30;3.45;;;2.60;;
70253;SDS011;57649;42.968;1.608;2023-06-22T12:07:58;2.70;;;2.17;;
70253;SDS011;57649;42.968;1.608;2023-06-22T12:10:25;3.70;;;2.45;;
70253;SDS011;57649;42.968;1.608;2023-06-22T12:12:50;2.85;;;2.00;;
70253;SDS011;57649;42.968;1.608;2023-06-22T12:15:16;4.05;;;2.50;;
70253;SDS011;57649;42.968;1.608;2023-06-22T12:17:41;5.32;;;2.60;;
70253;SDS011;57649;42.968;1.608;2023-06-22T12:20:07;3.40;;;2.00;;
70253;SDS011;57649;42.968;1.608;2023-06-22T12:22:33;3.70;;;2.10;;
70253;SDS011;57649;42.968;1.608;2023-06-22T12:24:59;3.65;;;2.25;;
70253;SDS011;57649;42.968;1.608;2023-06-22T12:27:25;2.97;;;2.20;;
70253;SDS011;57649;42.968;1.608;2023-06-22T12:29:51;5.00;;;2.20;;
70253;SDS011;57649;42.968;1.608;2023-06-22T12:32:16;3.08;;;2.22;;
70253;SDS011;57649;42.968;1.608;2023-06-22T12:34:42;4.07;;;2.85;;
70253;SDS011;57649;42.968;1.608;2023-06-22T12:37:08;13.88;;;3.35;;
70253;SDS011;57649;42.968;1.608;2023-06-22T12:39:34;3.33;;;2.10;;
70253;SDS011;57649;42.968;1.608;2023-06-22T12:41:59;3.00;;;2.05;;
70253;SDS011;57649;42.968;1.608;2023-06-22T12:44:25;3.00;;;2.22;;
70253;SDS011;57649;42.968;1.608;2023-06-22T12:46:50;5.10;;;2.40;;
70253;SDS011;57649;42.968;1.608;2023-06-22T12:49:16;5.68;;;2.60;;
70253;SDS011;57649;42.968;1.608;2023-06-22T12:51:41;3.13;;;2.47;;
70253;SDS011;57649;42.968;1.608;2023-06-22T12:54:08;6.20;;;2.80;;
70253;SDS011;57649;42.968;1.608;2023-06-22T12:56:34;4.00;;;2.28;;
70253;SDS011;57649;42.968;1.608;2023-06-22T12:58:59;4.03;;;2.47;;
70253;SDS011;57649;42.968;1.608;2023-06-22T13:01:26;4.22;;;2.38;;
70253;SDS011;57649;42.968;1.608;2023-06-22T13:03:52;6.93;;;2.45;;
70253;SDS011;57649;42.968;1.608;2023-06-22T13:06:18;7.10;;;2.35;;
70253;SDS011;57649;42.968;1.608;2023-06-22T13:08:44;3.67;;;2.60;;
70253;SDS011;57649;42.968;1.608;2023-06-22T13:11:09;5.00;;;2.28;;
70253;SDS011;57649;42.968;1.608;2023-06-22T13:13:34;5.13;;;2.50;;
70253;SDS011;57649;42.968;1.608;2023-06-22T13:16:00;2.85;;;2.40;;
70253;SDS011;57649;42.968;1.608;2023-06-22T13:18:25;5.00;;;2.50;;
70253;SDS011;57649;42.968;1.608;2023-06-22T13:20:51;2.75;;;2.15;;
70253;SDS011;57649;42.968;1.608;2023-06-22T13:23:19;3.15;;;2.22;;
70253;SDS011;57649;42.968;1.608;2023-06-22T13:25:44;4.40;;;2.83;;
70253;SDS011;57649;42.968;1.608;2023-06-22T13:28:10;3.90;;;2.75;;
70253;SDS011;57649;42.968;1.608;2023-06-22T13:30:38;4.38;;;2.78;;
70253;SDS011;57649;42.968;1.608;2023-06-22T13:33:04;5.35;;;3.03;;
70253;SDS011;57649;42.968;1.608;2023-06-22T13:35:29;6.03;;;3.13;;
70253;SDS011;57649;42.968;1.608;2023-06-22T13:37:54;4.45;;;3.15;;
70253;SDS011;57649;42.968;1.608;2023-06-22T13:40:20;5.93;;;3.08;;
70253;SDS011;57649;42.968;1.608;2023-06-22T13:42:45;5.18;;;2.67;;
70253;SDS011;57649;42.968;1.608;2023-06-22T13:45:10;6.65;;;2.88;;
70253;SDS011;57649;42.968;1.608;2023-06-22T13:47:36;4.30;;;2.60;;
70253;SDS011;57649;42.968;1.608;2023-06-22T13:50:02;8.15;;;3.20;;
70253;SDS011;57649;42.968;1.608;2023-06-22T13:52:28;3.33;;;2.95;;
70253;SDS011;57649;42.968;1.608;2023-06-22T13:54:53;3.90;;;2.92;;
70253;SDS011;57649;42.968;1.608;2023-06-22T13:57:18;2.85;;;2.42;;
70253;SDS011;57649;42.968;1.608;2023-06-22T13:59:44;4.10;;;2.80;;
70253;SDS011;57649;42.968;1.608;2023-06-22T14:02:09;3.20;;;2.72;;
70253;SDS011;57649;42.968;1.608;2023-06-22T14:04:35;4.07;;;2.70;;
70253;SDS011;57649;42.968;1.608;2023-06-22T14:07:00;3.20;;;2.70;;
70253;SDS011;57649;42.968;1.608;2023-06-22T14:09:25;3.92;;;2.67;;
70253;SDS011;57649;42.968;1.608;2023-06-22T14:11:51;4.10;;;2.60;;
70253;SDS011;57649;42.968;1.608;2023-06-22T14:14:16;4.93;;;2.55;;
70253;SDS011;57649;42.968;1.608;2023-06-22T14:16:41;4.25;;;2.90;;
70253;SDS011;57649;42.968;1.608;2023-06-22T14:19:07;10.43;;;3.88;;
70253;SDS011;57649;42.968;1.608;2023-06-22T14:21:32;7.05;;;3.90;;
70253;SDS011;57649;42.968;1.608;2023-06-22T14:23:58;5.28;;;3.92;;
70253;SDS011;57649;42.968;1.608;2023-06-22T14:26:23;6.30;;;3.97;;
70253;SDS011;57649;42.968;1.608;2023-06-22T14:28:49;5.72;;;3.97;;
70253;SDS011;57649;42.968;1.608;2023-06-22T14:31:18;5.43;;;4.50;;
70253;SDS011;57649;42.968;1.608;2023-06-22T14:33:45;6.22;;;4.45;;
70253;SDS011;57649;42.968;1.608;2023-06-22T14:36:13;6.13;;;3.85;;
70253;SDS011;57649;42.968;1.608;2023-06-22T14:38:38;5.57;;;4.50;;
70253;SDS011;57649;42.968;1.608;2023-06-22T14:41:04;6.03;;;4.72;;
70253;SDS011;57649;42.968;1.608;2023-06-22T14:43:29;6.97;;;4.85;;
70253;SDS011;57649;42.968;1.608;2023-06-22T14:45:58;7.88;;;4.65;;
70253;SDS011;57649;42.968;1.608;2023-06-22T14:48:24;6.05;;;3.92;;
70253;SDS011;57649;42.968;1.608;2023-06-22T14:50:49;7.78;;;4.70;;